Edmonton International Airport

CYEG · 艾伯塔, 加拿大

此METAR来自2022年8月14日 15:00. 最近的
罗盘
风向 的 风向 的 风向 到 风向 300° Edmonton International Airport 2/20
风: 7 kt, 3 beaufort


7 kt
改变
0 6.000 12.000 18.000 24.000 30.000
FEW 5.600 ft
BKN 25.000 ft
METAR CYEG 142100Z 30007KT 220V320 20SM FEW056 BKN250 24/11 A3002 RMK CU1CI5 CU TR SLP168 DENSITY ALT 3800FT

METAR Edmonton International Airport - CYEG/YEG

Edmonton International Airport是Edmonton,加拿大中的大型机场。 该机场有2条跑道: 2/20 和 12/30. 该领域的国际民航组织标志是CYEG 它的国际航空运输协会代码是YEG.

这份报告是针对2022年8月14日 15:00, 当地时间在Edmonton International Airport进行的。

机场观察

风向为300°,速度为7 kt。 风向在220°和320°之间变化。

可见度为20 mi。

有几云在5.600 ft的高度 和 碎云在25.000 ft的高度。 破损或更高的上限为25.000 ft。

温度和风寒是24 °C。 露点为11 °C,相对湿度为44%。 海平面上的气压为30,02 inHg (QNH)。

白天

今天,太阳从07:38升起,在19:08降落。 这适用于Edmonton International Airport,世界夏令时可能有所不同。 当地时间与世界标准时间之间的时差为-6 小时。 夏令时目前正在进行中。

公司介绍

我们没有关于这个机场的公司信息。

体会

到Vliegles.nl去找飞行课程,跳伞和其他飞行体验。 浏览页面,了解Edmonton International Airport附近所有可用的活动。 你也可以使用搜索功能来寻找你所在地附近的特定飞行课程、跳伞或其他飞行体验。

跑道

Id 标题 侧风 逆风 侧风 %
2/20 034°-214° 7 kt 100 %
12/30 135°-315° 2 kt 7 kt 26 %

逆风成分最大的方向会被突出显示,并用于横风计算。 这并不一定意味着这个方向在使用。

乌云

5.600 ft FEW 几云
25.000 ft BKN 碎云

温度 & 天气

温度 24 °C
露点 11 °C
相对湿度 44%
Kp-index 1 (0-9)

评论

SLP168海平面压力为30,03 inHg (30,03 inHg)
CU1CI5 CU TR DENSITY ALT 3800FT

白天

日出
06:13
中午
13:38
日落
21:04

小工具

你想在你的网站上有一个关于Edmonton International Airport的当前航空天气(METAR)的小部件吗?

</> 显示HTML代码

我们和第三方通过cookies跟踪您在我们网站上的上网行为。如果您继续,我们认为您同意我们的cookie政策。 了解更多